ADDS METAR Data INFO
IDs: Format: Raw Decoded Include TAF

Data at: 1941 UTC 18 Feb 2018

KDTS 181853Z 19004KT 10SM CLR 26/18 A3019 RMK AO2 SLP222 T02560178
KDTS 181753Z 21005KT 10SM CLR 25/18 A3021 RMK AO2 SLP230 T02500178 10256 20206 58002
KDTS 181653Z VRB04KT 10SM CLR 25/18 A3023 RMK AO2 SLP235 T02500183
KDTS 181553Z VRB03KT 10SM CLR 24/18 A3023 RMK AO2 SLP236 T02440178
KDTS 181453Z VRB03KT 10SM CLR 24/18 A3022 RMK AO2 SLP232 T02390183 52018
KDTS 181353Z 00000KT 10SM CLR 22/19 A3021 RMK AO2 SLP227 T02220189
KDTS 181313Z 21003KT 10SM SCT019 22/18 A3019 RMK AO2 T02170183
KDTS 181253Z 00000KT 8SM OVC019 21/18 A3018 RMK AO2 SLP220 T02110183
KDTS 181153Z 00000KT 9SM BKN021 21/18 A3017 RMK AO2 SLP215 T02060183 10222 20206 52009
KDTS 181119Z AUTO 33003KT 10SM FEW005 OVC022 21/19 A3016 RMK AO2 T02110189
KDTS 181053Z AUTO 00000KT 10SM OVC023 22/19 A3016 RMK AO2 SLP212 T02220189
KDTS 181002Z AUTO 00000KT 10SM BKN024 22/19 A3015 RMK AO2 T02170194
KDTS 180953Z AUTO VRB03KT 10SM SCT026 22/19 A3015 RMK AO2 SLP208 T02170189
KDTS 180853Z AUTO 22003KT 10SM FEW003 22/19 A3014 RMK AO2 SLP205 T02170194 55001
KDTS 180836Z AUTO 21004KT 10SM FEW004 22/19 A3014 RMK AO2 T02170194
KDTS 180753Z AUTO 21006KT 10SM CLR 22/19 A3013 RMK AO2 SLP202 T02220194
KDTS 180653Z AUTO 20003KT 10SM CLR 22/19 A3014 RMK AO2 SLP205 T02170194
KDTS 180553Z AUTO 22004KT 10SM CLR 22/19 A3014 RMK AO2 SLP207 T02170189 10233 20217 402560194 56005
KDTS 180453Z AUTO VRB04KT 10SM CLR 22/19 A3015 RMK AO2 SLP207 T02220194
KDTS 180353Z AUTO 19004KT 10SM CLR 22/19 A3015 RMK AO2 SLP209 T02220194
KDTS 180253Z 20004KT 10SM CLR 22/19 A3016 RMK AO2 SLP212 T02220189 53005
KDTS 180153Z 21006KT 10SM CLR 22/19 A3015 RMK AO2 SLP209 T02220189
KDTS 180053Z 19006KT 10SM SCT085 23/19 A3014 RMK AO2 SLP207 T02280194
KDTS 172353Z COR 22004KT 10SM SCT080 23/20 A3014 RMK AO2 SLP207 T02330200 10256 20233 51001
KDTS 172253Z VRB05KT 6SM HZ BKN075 23/20 A3014 RMK AO2 SLP207 T02330200
KDTS 172153Z 21004KT 6SM HZ BKN055 24/20 A3015 RMK AO2 SLP208 T02440200
KDTS 172053Z COR VRB06KT 6SM HZ BKN070 24/20 A3014 RMK AO2 SLP206 T02390200 56012
KDTS 171953Z 23006KT 10SM HZ SCT075 24/20 A3015 RMK AO2 SLP210 T02440200
KDTS 171853Z 21005KT 6SM HZ SCT008 SCT016 BKN070 25/20 A3017 RMK AO2 SLP214 T02500200
KDTS 171845Z VRB06KT 6SM HZ SCT008 SCT016 OVC070 24/20 A3017 RMK AO2 T02440200
KDTS 171837Z 24004KT 6SM HZ BKN010 BKN020 OVC070 25/20 A3017 RMK AO2 T02500200
KDTS 171808Z VRB06KT 6SM HZ BKN005 BKN020 24/20 A3018 RMK AO2 T02440200
KDTS 171753Z VRB05KT 10SM BKN065 25/20 A3018 RMK AO2 SLP219 T02500200 10256 20206 50002
KDTS 171653Z 18006KT 10SM FEW004 SCT026 24/20 A3018 RMK AO2 SLP219 T02390200
KDTS 171641Z 19007KT 5SM HZ SCT004 BKN010 24/20 A3018 RMK AO2 T02390200
KDTS 171631Z 19007KT 160V230 5SM HZ SCT004 SCT014 BKN022 23/20 A3018 RMK AO2 T02330200
KDTS 171613Z VRB05KT 5SM HZ BKN009 OVC035 24/20 A3018 RMK AO2 T02390200
KDTS 171606Z 20006KT 10SM HZ SCT004 BKN018 OVC035 23/20 A3018 RMK AO2 T02330200
KDTS 171553Z 19006KT 3SM HZ BKN004 BKN012 OVC019 23/20 A3017 RMK AO2 SLP217 T02280200
KDTS 171551Z 19006KT 3SM HZ BKN004 BKN012 OVC017 23/20 A3017 RMK AO2
KDTS 171537Z VRB03KT 2 1/2SM HZ OVC003 23/20 A3017 RMK AO2 T02280200
KDTS 171453Z VRB04KT 1 1/2SM BR OVC003 22/20 A3016 RMK AO2 SLP212 T02220200 51006
KDTS 171450Z VRB03KT 1 1/2SM BR OVC003 22/20 A3016 RMK AO2
KDTS 171410Z 00000KT 2SM BR BKN003 BKN010 OVC014 22/19 A3015 RMK AO2 CIG 002V006 T02170194
KDTS 171400Z 00000KT 2 1/2SM BR BKN005 BKN012 OVC028 22/19 A3015 RMK AO2 T02170194
KDTS 171353Z 00000KT 2SM BR SCT005 BKN012 OVC031 22/19 A3015 RMK AO2 SLP209 T02170194
KDTS 171309Z 00000KT 2SM BR FEW004 BKN022 OVC033 22/19 A3014 RMK AO2 T02170194
KDTS 171301Z 00000KT 2SM HZ FEW011 BKN022 OVC043 22/19 A3014 RMK AO2 T02170189
KDTS 171253Z 00000KT 4SM BR FEW008 BKN022 OVC030 21/19 A3014 RMK AO2 SLP205 T02110189
KDTS 171219Z 00000KT 7SM FEW005 OVC019 21/19 A3014 RMK AO2 T02110189
KDTS 171153Z 00000KT 7SM OVC016 21/18 A3013 RMK AO2 SLP202 T02060183 10206 20194 53005
KDTS 171139Z AUTO 00000KT 7SM BKN015 OVC055 21/18 A3013 RMK AO2 T02060183
KDTS 171053Z AUTO 00000KT 7SM OVC012 21/19 A3012 RMK AO2 SLP199 T02060189
KDTS 171030Z AUTO 00000KT 7SM SCT007 OVC010 21/19 A3012 RMK AO2 T02060189
KDTS 171026Z AUTO 00000KT 7SM BKN004 OVC009 21/18 A3012 RMK AO2 T02060183
KDTS 171019Z AUTO 00000KT 2SM BR BKN004 OVC011 21/18 A3012 RMK AO2 T02060183
KDTS 170953Z AUTO 00000KT 1/4SM FG VV002 19/18 A3012 RMK AO2 SLP198 T01940178
KDTS 170910Z AUTO 00000KT 3/4SM BR VV004 21/18 A3012 RMK AO2 T02060183
KDTS 170905Z AUTO 00000KT 1 3/4SM BR SCT002 BKN009 21/18 A3012 RMK AO2 T02060183
KDTS 170902Z AUTO 00000KT 4SM BR SCT002 BKN011 21/18 A3012 RMK AO2 T02060183
KDTS 170853Z AUTO 00000KT 6SM BR FEW004 SCT017 21/18 A3011 RMK AO2 SLP197 T02060183 58006
KDTS 170753Z AUTO 23003KT 7SM CLR 21/18 A3012 RMK AO2 SLP198 T02060183